Lincoln Park, MI (48146)

11:01 AM EDT on July 24, 2016 (GMT -0400)
Detroit Ave. & Fort Park | | Change Station

Elev 587 ft 42.24 °N, 83.18 °W | Updated 14 seconds ago

Overcast
Overcast
81.7 °F
Feels Like 88 °F
N
0.0
Wind Variable Wind from ENE

Today
High -- | Low -- °F
--% Chance of Precip.
Yesterday
High -- | Low -- °F
Precip. -- in
Pressure 29.95 in
Visibility 9.0 miles
Clouds Scattered Clouds 3500 ft
Mostly Cloudy 9000 ft
Overcast 15000 ft
Heat Index 88 °F
Dew Point 74 °F
Humidity 78%
Rainfall 0.00 in
Snow Depth Not available.
6:18 AM 8:59 PM
Waning Gibbous, 75% visible
METAR KDTW 241453Z 00000KT 9SM SCT035 BKN090 OVC150 26/22 A2996 RMK AO2 RAE49 SLP140 P0001 60001 T02610217 50002
Pressure 29.95 in
Visibility 9.0 miles
Clouds Scattered Clouds 3500 ft
Mostly Cloudy 9000 ft
Overcast 15000 ft
Heat Index 88 °F
Dew Point 74 °F
Humidity 78%
Rainfall 0.00 in
Snow Depth Not available.
6:18 AM 8:59 PM
Waning Gibbous, 75% visible
METAR KDTW 241453Z 00000KT 9SM SCT035 BKN090 OVC150 26/22 A2996 RMK AO2 RAE49 SLP140 P0001 60001 T02610217 50002

10-Day Weather Forecast

Almanac

Astronomy

Jul. 24, 2016 Rise Set
Actual Time
Civil Twilight
Nautical Twilight
Astronomical Twilight
Moon
Length of Visible Light
Length of Day
Tomorrow will be .
, % of the Moon is Illuminated

Today's Extremes

State Highs State Lows

Community

WunderPhotos

Upload Photos

1,927,073 photos uploaded!

WunderBlog® & News

Nearby

Air Quality

  Air Quality AQ Index Pollutant
Not available.

Snow Depth

Station Depth Elevation

Earthquake Activity

City Distance Mag. Time & Date
Minimum magnitude displayed is 2.5.

Coastal Water Temperatures

Place Temperature

Stations

Nearby Weather Stations

Station Location Temp. Windchill Dew Point Humidity Wind Precip. Elev Updated Type
                   

Watches & Warnings

There are currently no watches in effect.